Portada
METAR-TAF:

METAR-TAF

Aeroports :

Plataforma petroliera

J6-a, Països Baixos

latitud: 53-49-27N, longitud: 2-56-43E, altitud: 34 m

Observació

L'informe es va fer fa 34 minuts, a les 00:25 UTC
Vent 13 kt del Nord
Temperatura 6°C
Humitat 65%
Pressió 1025 hPa
Visibilitat 10 km o més

METAR: EHJA 220025Z AUTO 36013KT 9999 BKN025/// 06/00 Q1025

Hora: 02:59 (00:59 UTC)


TAF: manca

Observacions i pronòstics meteorològics de més de 4000 aeroports (METAR i TAF).

Les estacions disponibles són els punts grocs i vermells al mapa.

Posi el ratolí al punt desitjat per veure el nom de l'estació.

Feu clic per veure les observacions i els pronòstics meteorològics.

Per canviar el mapa: feu clic els botons verds amb una creu de color negre per apropar; al botó verd amb un guió per allunyar la imatge; o en les fletxes verdes per a mapes adjacents.


METAR-TAF: